sensor_id;sensor_type;location;lat;lon;timestamp;temperature;humidity
17284;DHT22;8760;52.248;20.952;2023-03-29T00:02:03;-1.80;1.00
17284;DHT22;8760;52.248;20.952;2023-03-29T00:04:32;-1.80;1.00
17284;DHT22;8760;52.248;20.952;2023-03-29T00:06:59;-1.80;1.00
17284;DHT22;8760;52.248;20.952;2023-03-29T00:09:29;-1.80;1.00
17284;DHT22;8760;52.248;20.952;2023-03-29T00:11:57;-1.90;1.00
17284;DHT22;8760;52.248;20.952;2023-03-29T00:14:25;-1.90;1.00
17284;DHT22;8760;52.248;20.952;2023-03-29T00:16:53;-1.90;1.00
17284;DHT22;8760;52.248;20.952;2023-03-29T00:19:20;-1.90;1.00
17284;DHT22;8760;52.248;20.952;2023-03-29T00:21:47;-1.90;1.00
17284;DHT22;8760;52.248;20.952;2023-03-29T00:24:14;-1.90;1.00
17284;DHT22;8760;52.248;20.952;2023-03-29T00:26:41;-1.90;1.00
17284;DHT22;8760;52.248;20.952;2023-03-29T00:29:08;-1.90;1.00
17284;DHT22;8760;52.248;20.952;2023-03-29T00:31:36;-1.90;1.00
17284;DHT22;8760;52.248;20.952;2023-03-29T00:34:03;-1.90;1.00
17284;DHT22;8760;52.248;20.952;2023-03-29T00:36:30;-2.00;1.00
17284;DHT22;8760;52.248;20.952;2023-03-29T00:38:57;-1.90;1.00
17284;DHT22;8760;52.248;20.952;2023-03-29T00:41:24;-2.00;1.00
17284;DHT22;8760;52.248;20.952;2023-03-29T00:43:53;-2.00;1.00
17284;DHT22;8760;52.248;20.952;2023-03-29T00:46:21;-2.00;1.00
17284;DHT22;8760;52.248;20.952;2023-03-29T00:48:51;-2.00;1.00
17284;DHT22;8760;52.248;20.952;2023-03-29T00:51:22;-2.00;1.00
17284;DHT22;8760;52.248;20.952;2023-03-29T00:53:53;-2.10;1.00
17284;DHT22;8760;52.248;20.952;2023-03-29T00:56:24;-2.10;1.00
17284;DHT22;8760;52.248;20.952;2023-03-29T00:58:57;-2.10;1.00
17284;DHT22;8760;52.248;20.952;2023-03-29T01:01:30;-2.10;1.00
17284;DHT22;8760;52.248;20.952;2023-03-29T01:04:03;-2.20;1.00
17284;DHT22;8760;52.248;20.952;2023-03-29T01:06:32;-2.10;1.00
17284;DHT22;8760;52.248;20.952;2023-03-29T01:09:03;-2.20;1.00
17284;DHT22;8760;52.248;20.952;2023-03-29T01:11:38;-2.20;1.00
17284;DHT22;8760;52.248;20.952;2023-03-29T01:14:09;-2.20;1.00
17284;DHT22;8760;52.248;20.952;2023-03-29T01:16:38;-2.20;1.00
17284;DHT22;8760;52.248;20.952;2023-03-29T01:19:08;-2.30;1.00
17284;DHT22;8760;52.248;20.952;2023-03-29T01:21:40;-2.20;1.00
17284;DHT22;8760;52.248;20.952;2023-03-29T01:24:32;-2.20;1.00
17284;DHT22;8760;52.248;20.952;2023-03-29T01:27:07;-2.20;1.00
17284;DHT22;8760;52.248;20.952;2023-03-29T01:29:41;-2.20;1.00
17284;DHT22;8760;52.248;20.952;2023-03-29T01:32:14;-2.20;1.00
17284;DHT22;8760;52.248;20.952;2023-03-29T01:34:46;-2.30;1.00
17284;DHT22;8760;52.248;20.952;2023-03-29T01:37:20;-2.40;1.00
17284;DHT22;8760;52.248;20.952;2023-03-29T01:39:49;-2.40;1.00
17284;DHT22;8760;52.248;20.952;2023-03-29T01:42:29;-2.40;1.00
17284;DHT22;8760;52.248;20.952;2023-03-29T01:45:03;-2.40;1.00
17284;DHT22;8760;52.248;20.952;2023-03-29T01:47:40;-2.40;1.00
17284;DHT22;8760;52.248;20.952;2023-03-29T01:50:12;-2.40;1.00
17284;DHT22;8760;52.248;20.952;2023-03-29T01:52:46;-2.40;1.00
17284;DHT22;8760;52.248;20.952;2023-03-29T01:55:16;-2.40;1.00
17284;DHT22;8760;52.248;20.952;2023-03-29T01:57:46;-2.40;1.00
17284;DHT22;8760;52.248;20.952;2023-03-29T02:00:18;-2.40;1.00
17284;DHT22;8760;52.248;20.952;2023-03-29T02:02:47;-2.40;1.00
17284;DHT22;8760;52.248;20.952;2023-03-29T02:05:17;-2.50;1.00
17284;DHT22;8760;52.248;20.952;2023-03-29T02:07:47;-2.50;1.00
17284;DHT22;8760;52.248;20.952;2023-03-29T02:10:15;-2.40;1.00
17284;DHT22;8760;52.248;20.952;2023-03-29T02:12:43;-2.40;1.00
17284;DHT22;8760;52.248;20.952;2023-03-29T02:15:11;-2.50;1.00
17284;DHT22;8760;52.248;20.952;2023-03-29T02:17:40;-2.40;1.00
17284;DHT22;8760;52.248;20.952;2023-03-29T02:20:10;-2.40;1.00
17284;DHT22;8760;52.248;20.952;2023-03-29T02:22:45;-2.40;1.00
17284;DHT22;8760;52.248;20.952;2023-03-29T02:25:13;-2.40;1.00
17284;DHT22;8760;52.248;20.952;2023-03-29T02:27:41;-2.40;1.00
17284;DHT22;8760;52.248;20.952;2023-03-29T02:30:09;-2.40;1.00
17284;DHT22;8760;52.248;20.952;2023-03-29T02:32:45;-2.50;40.20
17284;DHT22;8760;52.248;20.952;2023-03-29T02:35:19;-2.50;23.00
17284;DHT22;8760;52.248;20.952;2023-03-29T02:37:50;-2.50;99.90
17284;DHT22;8760;52.248;20.952;2023-03-29T02:40:21;-2.50;99.90
17284;DHT22;8760;52.248;20.952;2023-03-29T02:42:52;-2.50;99.90
17284;DHT22;8760;52.248;20.952;2023-03-29T02:45:22;-2.60;99.90
17284;DHT22;8760;52.248;20.952;2023-03-29T02:47:53;-2.60;99.90
17284;DHT22;8760;52.248;20.952;2023-03-29T02:50:23;-2.60;1.00
17284;DHT22;8760;52.248;20.952;2023-03-29T02:52:53;-2.60;1.00
17284;DHT22;8760;52.248;20.952;2023-03-29T02:55:23;-2.60;1.00
17284;DHT22;8760;52.248;20.952;2023-03-29T02:57:50;-2.50;1.00
17284;DHT22;8760;52.248;20.952;2023-03-29T03:00:18;-2.50;1.00
17284;DHT22;8760;52.248;20.952;2023-03-29T03:02:47;-2.50;1.00
17284;DHT22;8760;52.248;20.952;2023-03-29T03:05:17;-2.50;1.00
17284;DHT22;8760;52.248;20.952;2023-03-29T03:07:44;-2.50;1.00
17284;DHT22;8760;52.248;20.952;2023-03-29T03:10:14;-2.60;99.90
17284;DHT22;8760;52.248;20.952;2023-03-29T03:12:41;-2.60;99.90
17284;DHT22;8760;52.248;20.952;2023-03-29T03:15:08;-2.60;1.00
17284;DHT22;8760;52.248;20.952;2023-03-29T03:17:35;-2.70;1.00
17284;DHT22;8760;52.248;20.952;2023-03-29T03:20:08;-2.70;1.00
17284;DHT22;8760;52.248;20.952;2023-03-29T03:22:39;-2.70;1.00
17284;DHT22;8760;52.248;20.952;2023-03-29T03:25:07;-2.60;1.00
17284;DHT22;8760;52.248;20.952;2023-03-29T03:27:36;-2.70;10.00
17284;DHT22;8760;52.248;20.952;2023-03-29T03:30:04;-2.60;99.90
17284;DHT22;8760;52.248;20.952;2023-03-29T03:32:32;-2.60;96.40
17284;DHT22;8760;52.248;20.952;2023-03-29T03:34:59;-2.70;99.90
17284;DHT22;8760;52.248;20.952;2023-03-29T03:37:27;-2.70;99.90
17284;DHT22;8760;52.248;20.952;2023-03-29T03:39:55;-2.80;1.00
17284;DHT22;8760;52.248;20.952;2023-03-29T03:42:22;-2.70;1.00
17284;DHT22;8760;52.248;20.952;2023-03-29T03:44:49;-2.80;1.00
17284;DHT22;8760;52.248;20.952;2023-03-29T03:47:16;-2.70;49.00
17284;DHT22;8760;52.248;20.952;2023-03-29T03:49:43;-2.70;99.90
17284;DHT22;8760;52.248;20.952;2023-03-29T03:52:10;-2.70;99.90
17284;DHT22;8760;52.248;20.952;2023-03-29T03:54:37;-2.70;99.90
17284;DHT22;8760;52.248;20.952;2023-03-29T03:57:05;-2.70;99.90
17284;DHT22;8760;52.248;20.952;2023-03-29T03:59:32;-2.70;1.00
17284;DHT22;8760;52.248;20.952;2023-03-29T04:01:59;-2.80;1.00
17284;DHT22;8760;52.248;20.952;2023-03-29T04:04:26;-2.70;27.10
17284;DHT22;8760;52.248;20.952;2023-03-29T04:06:54;-2.70;85.70
17284;DHT22;8760;52.248;20.952;2023-03-29T04:09:27;-2.70;99.90
17284;DHT22;8760;52.248;20.952;2023-03-29T04:11:54;-2.70;1.00
17284;DHT22;8760;52.248;20.952;2023-03-29T04:14:23;-2.70;1.00
17284;DHT22;8760;52.248;20.952;2023-03-29T04:16:50;-2.70;99.90
17284;DHT22;8760;52.248;20.952;2023-03-29T04:19:18;-2.70;99.90
17284;DHT22;8760;52.248;20.952;2023-03-29T04:21:45;-2.70;1.00
17284;DHT22;8760;52.248;20.952;2023-03-29T04:24:14;-2.60;1.00
17284;DHT22;8760;52.248;20.952;2023-03-29T04:26:42;-2.70;22.90
17284;DHT22;8760;52.248;20.952;2023-03-29T04:29:09;-2.70;1.00
17284;DHT22;8760;52.248;20.952;2023-03-29T04:31:37;-2.70;1.00
17284;DHT22;8760;52.248;20.952;2023-03-29T04:34:04;-2.60;1.00
17284;DHT22;8760;52.248;20.952;2023-03-29T04:36:31;-2.60;1.00
17284;DHT22;8760;52.248;20.952;2023-03-29T04:38:58;-2.60;1.00
17284;DHT22;8760;52.248;20.952;2023-03-29T04:41:26;-2.50;99.90
17284;DHT22;8760;52.248;20.952;2023-03-29T04:43:53;-2.60;99.90
17284;DHT22;8760;52.248;20.952;2023-03-29T04:46:20;-2.60;99.90
17284;DHT22;8760;52.248;20.952;2023-03-29T04:48:51;-2.60;1.00
17284;DHT22;8760;52.248;20.952;2023-03-29T04:51:18;-2.60;1.00
17284;DHT22;8760;52.248;20.952;2023-03-29T04:53:47;-2.50;1.00
17284;DHT22;8760;52.248;20.952;2023-03-29T04:56:14;-2.50;99.90
17284;DHT22;8760;52.248;20.952;2023-03-29T04:58:42;-2.40;99.90
17284;DHT22;8760;52.248;20.952;2023-03-29T05:01:10;-2.40;99.90
17284;DHT22;8760;52.248;20.952;2023-03-29T05:03:37;-2.40;1.00
17284;DHT22;8760;52.248;20.952;2023-03-29T05:06:10;-2.30;1.00
17284;DHT22;8760;52.248;20.952;2023-03-29T05:08:38;-2.20;1.00
17284;DHT22;8760;52.248;20.952;2023-03-29T05:11:06;-2.30;1.00
17284;DHT22;8760;52.248;20.952;2023-03-29T05:13:33;-2.20;99.90
17284;DHT22;8760;52.248;20.952;2023-03-29T05:16:00;-2.30;99.90
17284;DHT22;8760;52.248;20.952;2023-03-29T05:18:28;-2.20;1.00
17284;DHT22;8760;52.248;20.952;2023-03-29T05:20:56;-2.20;1.00
17284;DHT22;8760;52.248;20.952;2023-03-29T05:23:24;-2.20;99.90
17284;DHT22;8760;52.248;20.952;2023-03-29T05:25:52;-2.00;1.00
17284;DHT22;8760;52.248;20.952;2023-03-29T05:28:19;-2.00;47.70
17284;DHT22;8760;52.248;20.952;2023-03-29T05:30:46;-1.90;97.60
17284;DHT22;8760;52.248;20.952;2023-03-29T05:33:14;-1.80;22.00
17284;DHT22;8760;52.248;20.952;2023-03-29T05:35:41;-1.70;1.00
17284;DHT22;8760;52.248;20.952;2023-03-29T05:38:08;-1.60;99.90
17284;DHT22;8760;52.248;20.952;2023-03-29T05:40:36;-1.50;1.00
17284;DHT22;8760;52.248;20.952;2023-03-29T05:43:03;-1.30;1.00
17284;DHT22;8760;52.248;20.952;2023-03-29T05:45:30;-1.10;1.00
17284;DHT22;8760;52.248;20.952;2023-03-29T05:47:58;-0.90;95.50
17284;DHT22;8760;52.248;20.952;2023-03-29T05:50:25;-0.90;1.00
17284;DHT22;8760;52.248;20.952;2023-03-29T05:52:52;-0.80;99.90
17284;DHT22;8760;52.248;20.952;2023-03-29T05:55:19;-0.70;99.90
17284;DHT22;8760;52.248;20.952;2023-03-29T05:57:47;-0.70;99.90
17284;DHT22;8760;52.248;20.952;2023-03-29T06:00:15;-0.50;99.90
17284;DHT22;8760;52.248;20.952;2023-03-29T06:02:47;-0.30;1.00
17284;DHT22;8760;52.248;20.952;2023-03-29T06:05:14;-0.10;99.90
17284;DHT22;8760;52.248;20.952;2023-03-29T06:07:41;0.00;99.90
17284;DHT22;8760;52.248;20.952;2023-03-29T06:10:08;0.20;92.10
17284;DHT22;8760;52.248;20.952;2023-03-29T06:12:35;0.40;1.00
17284;DHT22;8760;52.248;20.952;2023-03-29T06:15:05;0.60;1.00
17284;DHT22;8760;52.248;20.952;2023-03-29T06:17:33;0.70;1.00
17284;DHT22;8760;52.248;20.952;2023-03-29T06:20:01;0.90;99.90
17284;DHT22;8760;52.248;20.952;2023-03-29T06:22:30;1.20;99.90
17284;DHT22;8760;52.248;20.952;2023-03-29T06:24:57;1.30;26.10
17284;DHT22;8760;52.248;20.952;2023-03-29T06:27:24;1.50;99.90
17284;DHT22;8760;52.248;20.952;2023-03-29T06:29:51;1.60;19.80
17284;DHT22;8760;52.248;20.952;2023-03-29T06:32:19;1.90;1.00
17284;DHT22;8760;52.248;20.952;2023-03-29T06:34:47;2.20;1.00
17284;DHT22;8760;52.248;20.952;2023-03-29T06:37:15;2.50;1.00
17284;DHT22;8760;52.248;20.952;2023-03-29T06:39:42;2.80;1.00
17284;DHT22;8760;52.248;20.952;2023-03-29T06:42:09;3.10;1.00
17284;DHT22;8760;52.248;20.952;2023-03-29T06:44:36;3.20;1.00
17284;DHT22;8760;52.248;20.952;2023-03-29T06:47:03;3.30;1.00
17284;DHT22;8760;52.248;20.952;2023-03-29T06:49:31;3.40;1.00
17284;DHT22;8760;52.248;20.952;2023-03-29T06:51:58;3.50;99.90
17284;DHT22;8760;52.248;20.952;2023-03-29T06:54:25;3.70;99.90
17284;DHT22;8760;52.248;20.952;2023-03-29T06:56:52;4.00;99.90
17284;DHT22;8760;52.248;20.952;2023-03-29T06:59:19;4.30;99.90
17284;DHT22;8760;52.248;20.952;2023-03-29T07:01:46;4.60;99.90
17284;DHT22;8760;52.248;20.952;2023-03-29T07:04:13;5.10;99.90
17284;DHT22;8760;52.248;20.952;2023-03-29T07:06:42;5.30;99.90
17284;DHT22;8760;52.248;20.952;2023-03-29T07:09:13;5.70;99.90
17284;DHT22;8760;52.248;20.952;2023-03-29T07:11:41;5.80;99.90
17284;DHT22;8760;52.248;20.952;2023-03-29T07:14:08;5.70;99.90
17284;DHT22;8760;52.248;20.952;2023-03-29T07:16:35;6.10;99.90
17284;DHT22;8760;52.248;20.952;2023-03-29T07:19:03;6.20;99.90
17284;DHT22;8760;52.248;20.952;2023-03-29T07:21:30;6.30;99.90
17284;DHT22;8760;52.248;20.952;2023-03-29T07:23:59;6.20;99.90
17284;DHT22;8760;52.248;20.952;2023-03-29T07:26:29;6.40;99.90
17284;DHT22;8760;52.248;20.952;2023-03-29T07:28:56;6.70;99.90
17284;DHT22;8760;52.248;20.952;2023-03-29T07:31:24;7.30;99.90
17284;DHT22;8760;52.248;20.952;2023-03-29T07:33:53;7.50;99.90
17284;DHT22;8760;52.248;20.952;2023-03-29T07:36:20;7.80;99.90
17284;DHT22;8760;52.248;20.952;2023-03-29T07:38:48;7.90;99.90
17284;DHT22;8760;52.248;20.952;2023-03-29T07:41:16;8.10;99.90
17284;DHT22;8760;52.248;20.952;2023-03-29T07:43:43;8.30;99.90
17284;DHT22;8760;52.248;20.952;2023-03-29T07:46:11;8.60;99.90
17284;DHT22;8760;52.248;20.952;2023-03-29T07:48:38;8.60;99.90
17284;DHT22;8760;52.248;20.952;2023-03-29T07:51:06;8.70;99.90
17284;DHT22;8760;52.248;20.952;2023-03-29T07:53:33;8.60;99.90
17284;DHT22;8760;52.248;20.952;2023-03-29T07:56:00;8.30;99.90
17284;DHT22;8760;52.248;20.952;2023-03-29T07:58:28;7.90;99.90
17284;DHT22;8760;52.248;20.952;2023-03-29T08:00:57;7.80;99.90
17284;DHT22;8760;52.248;20.952;2023-03-29T08:03:24;8.20;99.90
17284;DHT22;8760;52.248;20.952;2023-03-29T08:05:52;8.70;99.90
17284;DHT22;8760;52.248;20.952;2023-03-29T08:08:19;8.60;99.90
17284;DHT22;8760;52.248;20.952;2023-03-29T08:10:46;8.50;99.90
17284;DHT22;8760;52.248;20.952;2023-03-29T08:13:13;8.30;99.90
17284;DHT22;8760;52.248;20.952;2023-03-29T08:15:41;8.30;99.90
17284;DHT22;8760;52.248;20.952;2023-03-29T08:18:10;8.60;99.90
17284;DHT22;8760;52.248;20.952;2023-03-29T08:20:37;8.80;99.90
17284;DHT22;8760;52.248;20.952;2023-03-29T08:23:04;8.90;99.90
17284;DHT22;8760;52.248;20.952;2023-03-29T08:25:32;8.80;99.90
17284;DHT22;8760;52.248;20.952;2023-03-29T08:27:59;9.40;99.90
17284;DHT22;8760;52.248;20.952;2023-03-29T08:30:26;9.70;99.90
17284;DHT22;8760;52.248;20.952;2023-03-29T08:32:55;9.90;99.90
17284;DHT22;8760;52.248;20.952;2023-03-29T08:35:22;10.10;99.90
17284;DHT22;8760;52.248;20.952;2023-03-29T08:37:49;10.00;99.90
17284;DHT22;8760;52.248;20.952;2023-03-29T08:40:19;10.20;99.90
17284;DHT22;8760;52.248;20.952;2023-03-29T08:43:13;10.20;99.90
17284;DHT22;8760;52.248;20.952;2023-03-29T08:45:51;10.20;99.90
17284;DHT22;8760;52.248;20.952;2023-03-29T08:48:26;10.10;99.90
17284;DHT22;8760;52.248;20.952;2023-03-29T08:50:58;10.20;99.90
17284;DHT22;8760;52.248;20.952;2023-03-29T08:53:29;10.60;99.90
17284;DHT22;8760;52.248;20.952;2023-03-29T08:56:00;10.90;99.90
17284;DHT22;8760;52.248;20.952;2023-03-29T08:58:31;10.70;99.90
17284;DHT22;8760;52.248;20.952;2023-03-29T09:01:00;10.40;96.40
17284;DHT22;8760;52.248;20.952;2023-03-29T09:03:33;10.50;96.10
17284;DHT22;8760;52.248;20.952;2023-03-29T09:06:04;10.80;96.00
17284;DHT22;8760;52.248;20.952;2023-03-29T09:08:33;11.20;90.40
17284;DHT22;8760;52.248;20.952;2023-03-29T09:11:21;11.40;88.70
17284;DHT22;8760;52.248;20.952;2023-03-29T09:13:58;11.90;79.50
17284;DHT22;8760;52.248;20.952;2023-03-29T09:16:35;11.30;63.90
17284;DHT22;8760;52.248;20.952;2023-03-29T09:19:14;10.90;55.20
17284;DHT22;8760;52.248;20.952;2023-03-29T09:21:47;10.40;51.00
17284;DHT22;8760;52.248;20.952;2023-03-29T09:24:37;10.00;48.70
17284;DHT22;8760;52.248;20.952;2023-03-29T09:27:09;10.10;47.50
17284;DHT22;8760;52.248;20.952;2023-03-29T09:29:49;10.80;44.30
17284;DHT22;8760;52.248;20.952;2023-03-29T09:32:20;10.90;41.80
17284;DHT22;8760;52.248;20.952;2023-03-29T09:34:53;10.70;38.40
17284;DHT22;8760;52.248;20.952;2023-03-29T09:37:30;10.60;37.40
17284;DHT22;8760;52.248;20.952;2023-03-29T09:39:58;11.00;33.70
17284;DHT22;8760;52.248;20.952;2023-03-29T09:42:27;11.10;30.90
17284;DHT22;8760;52.248;20.952;2023-03-29T09:44:59;10.90;30.50
17284;DHT22;8760;52.248;20.952;2023-03-29T09:47:35;11.40;28.00
17284;DHT22;8760;52.248;20.952;2023-03-29T09:50:09;12.10;24.30
17284;DHT22;8760;52.248;20.952;2023-03-29T09:52:39;12.70;20.70
17284;DHT22;8760;52.248;20.952;2023-03-29T09:55:12;13.00;19.50
17284;DHT22;8760;52.248;20.952;2023-03-29T09:57:40;13.20;16.00
17284;DHT22;8760;52.248;20.952;2023-03-29T10:00:09;13.70;16.10
17284;DHT22;8760;52.248;20.952;2023-03-29T10:02:36;13.80;12.70
17284;DHT22;8760;52.248;20.952;2023-03-29T10:05:05;14.00;9.10
17284;DHT22;8760;52.248;20.952;2023-03-29T10:07:38;13.70;7.60
17284;DHT22;8760;52.248;20.952;2023-03-29T10:10:13;13.60;4.20
17284;DHT22;8760;52.248;20.952;2023-03-29T10:12:48;13.30;2.30
17284;DHT22;8760;52.248;20.952;2023-03-29T10:15:17;13.00;1.90
17284;DHT22;8760;52.248;20.952;2023-03-29T10:17:46;13.50;1.00
17284;DHT22;8760;52.248;20.952;2023-03-29T10:20:17;13.80;1.00
17284;DHT22;8760;52.248;20.952;2023-03-29T10:22:47;13.90;1.00
17284;DHT22;8760;52.248;20.952;2023-03-29T10:25:16;13.80;1.00
17284;DHT22;8760;52.248;20.952;2023-03-29T10:27:45;14.00;1.00
17284;DHT22;8760;52.248;20.952;2023-03-29T10:30:21;14.20;1.00
17284;DHT22;8760;52.248;20.952;2023-03-29T10:32:54;14.70;1.00
17284;DHT22;8760;52.248;20.952;2023-03-29T10:35:27;14.50;1.00
17284;DHT22;8760;52.248;20.952;2023-03-29T10:37:56;14.20;1.00
17284;DHT22;8760;52.248;20.952;2023-03-29T10:40:29;14.00;1.00
17284;DHT22;8760;52.248;20.952;2023-03-29T10:42:59;14.60;1.00
17284;DHT22;8760;52.248;20.952;2023-03-29T10:45:28;14.80;1.00
17284;DHT22;8760;52.248;20.952;2023-03-29T10:47:57;14.90;1.00
17284;DHT22;8760;52.248;20.952;2023-03-29T10:50:32;14.40;1.00
17284;DHT22;8760;52.248;20.952;2023-03-29T10:53:00;13.50;1.00
17284;DHT22;8760;52.248;20.952;2023-03-29T10:55:34;13.50;1.00
17284;DHT22;8760;52.248;20.952;2023-03-29T10:58:11;13.50;1.00
17284;DHT22;8760;52.248;20.952;2023-03-29T11:00:47;13.40;1.00
17284;DHT22;8760;52.248;20.952;2023-03-29T11:03:41;13.80;1.00
17284;DHT22;8760;52.248;20.952;2023-03-29T11:06:18;13.90;1.00
17284;DHT22;8760;52.248;20.952;2023-03-29T11:08:55;14.00;1.00
17284;DHT22;8760;52.248;20.952;2023-03-29T11:11:46;14.10;1.00
17284;DHT22;8760;52.248;20.952;2023-03-29T11:14:28;14.10;1.00
17284;DHT22;8760;52.248;20.952;2023-03-29T11:17:07;13.70;1.00
17284;DHT22;8760;52.248;20.952;2023-03-29T11:19:52;13.60;1.00
17284;DHT22;8760;52.248;20.952;2023-03-29T11:22:29;13.50;1.00
17284;DHT22;8760;52.248;20.952;2023-03-29T11:25:12;12.80;1.00
17284;DHT22;8760;52.248;20.952;2023-03-29T11:27:47;12.30;1.00
17284;DHT22;8760;52.248;20.952;2023-03-29T11:30:19;12.50;1.00
17284;DHT22;8760;52.248;20.952;2023-03-29T11:32:55;12.40;1.00
17284;DHT22;8760;52.248;20.952;2023-03-29T11:35:36;12.10;1.00
17284;DHT22;8760;52.248;20.952;2023-03-29T11:38:14;11.90;1.00
17284;DHT22;8760;52.248;20.952;2023-03-29T11:40:50;11.20;1.00
17284;DHT22;8760;52.248;20.952;2023-03-29T11:43:23;11.40;1.00
17284;DHT22;8760;52.248;20.952;2023-03-29T11:45:55;11.30;1.00
17284;DHT22;8760;52.248;20.952;2023-03-29T11:48:27;10.80;1.00
17284;DHT22;8760;52.248;20.952;2023-03-29T11:50:58;10.40;1.00
17284;DHT22;8760;52.248;20.952;2023-03-29T11:53:35;10.20;1.00
17284;DHT22;8760;52.248;20.952;2023-03-29T11:56:09;10.00;1.00
17284;DHT22;8760;52.248;20.952;2023-03-29T11:58:40;10.10;1.00
17284;DHT22;8760;52.248;20.952;2023-03-29T12:01:12;10.50;1.00
17284;DHT22;8760;52.248;20.952;2023-03-29T12:03:45;10.50;1.00
17284;DHT22;8760;52.248;20.952;2023-03-29T12:06:18;10.50;1.00
17284;DHT22;8760;52.248;20.952;2023-03-29T12:08:50;10.60;1.00
17284;DHT22;8760;52.248;20.952;2023-03-29T12:11:25;10.90;1.00
17284;DHT22;8760;52.248;20.952;2023-03-29T12:13:57;11.50;1.00
17284;DHT22;8760;52.248;20.952;2023-03-29T12:16:28;11.80;1.00
17284;DHT22;8760;52.248;20.952;2023-03-29T12:19:00;11.70;1.00
17284;DHT22;8760;52.248;20.952;2023-03-29T12:21:29;11.50;1.00
17284;DHT22;8760;52.248;20.952;2023-03-29T12:23:58;11.80;1.00
17284;DHT22;8760;52.248;20.952;2023-03-29T12:26:45;12.00;1.00
17284;DHT22;8760;52.248;20.952;2023-03-29T12:29:27;12.10;1.00
17284;DHT22;8760;52.248;20.952;2023-03-29T12:32:09;12.80;1.00
17284;DHT22;8760;52.248;20.952;2023-03-29T12:34:55;13.30;1.00
17284;DHT22;8760;52.248;20.952;2023-03-29T12:37:31;13.70;1.00
17284;DHT22;8760;52.248;20.952;2023-03-29T12:40:11;14.20;1.00
17284;DHT22;8760;52.248;20.952;2023-03-29T12:42:51;14.30;1.00
17284;DHT22;8760;52.248;20.952;2023-03-29T12:45:20;14.60;1.00
17284;DHT22;8760;52.248;20.952;2023-03-29T12:47:54;14.50;1.00
17284;DHT22;8760;52.248;20.952;2023-03-29T12:50:24;14.60;1.00
17284;DHT22;8760;52.248;20.952;2023-03-29T12:53:04;14.10;1.00
17284;DHT22;8760;52.248;20.952;2023-03-29T12:55:46;13.70;1.00
17284;DHT22;8760;52.248;20.952;2023-03-29T12:58:26;13.30;1.00
17284;DHT22;8760;52.248;20.952;2023-03-29T13:01:03;13.00;1.00
17284;DHT22;8760;52.248;20.952;2023-03-29T13:03:39;12.10;1.00
17284;DHT22;8760;52.248;20.952;2023-03-29T13:06:08;11.90;1.00
17284;DHT22;8760;52.248;20.952;2023-03-29T13:08:37;11.50;1.00
17284;DHT22;8760;52.248;20.952;2023-03-29T13:11:10;11.60;1.00
17284;DHT22;8760;52.248;20.952;2023-03-29T13:13:39;12.10;1.00
17284;DHT22;8760;52.248;20.952;2023-03-29T13:16:12;12.20;1.00
17284;DHT22;8760;52.248;20.952;2023-03-29T13:19:00;12.50;1.00
17284;DHT22;8760;52.248;20.952;2023-03-29T13:21:38;12.60;1.00
17284;DHT22;8760;52.248;20.952;2023-03-29T13:24:24;12.50;1.00
17284;DHT22;8760;52.248;20.952;2023-03-29T13:26:59;12.60;1.00
17284;DHT22;8760;52.248;20.952;2023-03-29T13:29:42;12.40;1.00
17284;DHT22;8760;52.248;20.952;2023-03-29T13:32:27;12.10;1.00
17284;DHT22;8760;52.248;20.952;2023-03-29T13:35:00;12.30;1.00
17284;DHT22;8760;52.248;20.952;2023-03-29T13:37:37;12.80;1.00
17284;DHT22;8760;52.248;20.952;2023-03-29T13:40:24;13.00;1.00
17284;DHT22;8760;52.248;20.952;2023-03-29T13:42:58;13.40;1.00
17284;DHT22;8760;52.248;20.952;2023-03-29T13:45:27;14.20;1.00
17284;DHT22;8760;52.248;20.952;2023-03-29T13:48:02;14.60;1.00
17284;DHT22;8760;52.248;20.952;2023-03-29T13:50:35;14.60;1.00
17284;DHT22;8760;52.248;20.952;2023-03-29T13:53:08;14.40;1.00
17284;DHT22;8760;52.248;20.952;2023-03-29T13:55:43;13.80;1.00
17284;DHT22;8760;52.248;20.952;2023-03-29T13:58:16;12.90;1.00
17284;DHT22;8760;52.248;20.952;2023-03-29T14:00:49;12.70;1.00
17284;DHT22;8760;52.248;20.952;2023-03-29T14:03:20;12.50;1.00
17284;DHT22;8760;52.248;20.952;2023-03-29T14:05:56;12.50;1.00
17284;DHT22;8760;52.248;20.952;2023-03-29T14:08:26;12.80;1.00
17284;DHT22;8760;52.248;20.952;2023-03-29T14:10:54;13.20;1.00
17284;DHT22;8760;52.248;20.952;2023-03-29T14:13:24;13.40;1.00
17284;DHT22;8760;52.248;20.952;2023-03-29T14:15:53;13.60;1.00
17284;DHT22;8760;52.248;20.952;2023-03-29T14:18:23;13.30;1.00
17284;DHT22;8760;52.248;20.952;2023-03-29T14:20:53;13.40;1.00
17284;DHT22;8760;52.248;20.952;2023-03-29T14:23:22;13.50;1.00
17284;DHT22;8760;52.248;20.952;2023-03-29T14:25:50;13.80;1.00
17284;DHT22;8760;52.248;20.952;2023-03-29T14:28:23;13.80;1.00
17284;DHT22;8760;52.248;20.952;2023-03-29T14:30:51;13.60;1.00
17284;DHT22;8760;52.248;20.952;2023-03-29T14:33:23;13.80;1.00
17284;DHT22;8760;52.248;20.952;2023-03-29T14:35:52;14.00;1.00
17284;DHT22;8760;52.248;20.952;2023-03-29T14:38:20;13.60;1.00
17284;DHT22;8760;52.248;20.952;2023-03-29T14:40:49;13.60;1.00
17284;DHT22;8760;52.248;20.952;2023-03-29T14:43:18;13.70;1.00
17284;DHT22;8760;52.248;20.952;2023-03-29T14:45:48;13.60;1.00
17284;DHT22;8760;52.248;20.952;2023-03-29T14:48:17;13.90;1.00
17284;DHT22;8760;52.248;20.952;2023-03-29T14:50:45;14.20;1.00
17284;DHT22;8760;52.248;20.952;2023-03-29T14:53:17;14.60;1.00
17284;DHT22;8760;52.248;20.952;2023-03-29T14:55:48;14.90;1.00
17284;DHT22;8760;52.248;20.952;2023-03-29T14:58:19;15.00;1.00
17284;DHT22;8760;52.248;20.952;2023-03-29T15:00:49;14.70;1.00
17284;DHT22;8760;52.248;20.952;2023-03-29T15:03:17;13.70;1.00
17284;DHT22;8760;52.248;20.952;2023-03-29T15:05:50;13.70;1.00
17284;DHT22;8760;52.248;20.952;2023-03-29T15:08:27;13.90;1.00
17284;DHT22;8760;52.248;20.952;2023-03-29T15:10:55;13.20;1.00
17284;DHT22;8760;52.248;20.952;2023-03-29T15:13:23;12.60;1.00
17284;DHT22;8760;52.248;20.952;2023-03-29T15:15:55;12.30;1.00
17284;DHT22;8760;52.248;20.952;2023-03-29T15:18:27;12.00;1.00
17284;DHT22;8760;52.248;20.952;2023-03-29T15:20:55;11.90;1.00
17284;DHT22;8760;52.248;20.952;2023-03-29T15:23:24;11.60;1.00
17284;DHT22;8760;52.248;20.952;2023-03-29T15:25:54;11.30;1.00
17284;DHT22;8760;52.248;20.952;2023-03-29T15:28:29;11.10;1.00
17284;DHT22;8760;52.248;20.952;2023-03-29T15:31:00;10.90;1.00
17284;DHT22;8760;52.248;20.952;2023-03-29T15:33:32;10.70;1.00
17284;DHT22;8760;52.248;20.952;2023-03-29T15:36:01;10.70;1.00
17284;DHT22;8760;52.248;20.952;2023-03-29T15:38:29;10.70;1.00
17284;DHT22;8760;52.248;20.952;2023-03-29T15:40:56;10.60;1.00
17284;DHT22;8760;52.248;20.952;2023-03-29T15:43:24;10.50;1.00
17284;DHT22;8760;52.248;20.952;2023-03-29T15:45:51;10.30;1.00
17284;DHT22;8760;52.248;20.952;2023-03-29T15:48:23;10.30;1.00
17284;DHT22;8760;52.248;20.952;2023-03-29T15:50:50;10.40;1.00
17284;DHT22;8760;52.248;20.952;2023-03-29T15:53:18;10.40;1.00
17284;DHT22;8760;52.248;20.952;2023-03-29T15:55:48;10.20;1.00
17284;DHT22;8760;52.248;20.952;2023-03-29T15:58:17;10.10;1.00
17284;DHT22;8760;52.248;20.952;2023-03-29T16:00:49;9.90;1.00
17284;DHT22;8760;52.248;20.952;2023-03-29T16:03:16;9.60;1.00
17284;DHT22;8760;52.248;20.952;2023-03-29T16:05:45;9.40;1.00